Time;durP1;ratioP1;P1;durP2;ratioP2;P2;SDS_P1;SDS_P2;PMS_P1;PMS_P2;Temp;Humidity;BMP_temperature;BMP_pressure;BME280_temperature;BME280_humidity;BME280_pressure;Samples;Min_cycle;Max_cycle;Signal;HPM_P1;HPM_P2
2021/05/30 00:01:58;;;;;;;4.53;3.50;;;;;;;21.23;47.57;99350.34;4895091;29;20505;-76
2021/05/30 00:04:24;;;;;;;3.22;3.03;;;;;;;21.82;47.55;99454.41;4896558;29;20032;-76
2021/05/30 00:06:49;;;;;;;3.53;3.22;;;;;;;21.78;47.55;99434.50;4896454;29;20036;-76
2021/05/30 00:09:15;;;;;;;4.25;3.10;;;;;;;21.84;47.64;99453.09;4896502;29;20040;-76
2021/05/30 00:11:40;;;;;;;3.25;2.95;;;;;;;21.81;47.71;99444.72;4896455;29;20024;-76
2021/05/30 00:14:06;;;;;;;4.05;3.63;;;;;;;21.70;47.74;99437.63;4896358;29;20032;-76
2021/05/30 00:16:33;;;;;;;5.50;3.42;;;;;;;21.40;47.79;99392.41;4896282;29;20033;-77
2021/05/30 00:19:03;;;;;;;3.38;3.08;;;;;;;21.72;47.79;99447.06;4896508;29;20033;-76
2021/05/30 00:21:29;;;;;;;5.20;3.30;;;;;;;21.24;47.95;99384.19;4896761;29;20033;-77
2021/05/30 00:23:57;;;;;;;3.35;3.10;;;;;;;20.84;48.07;99325.44;4896806;29;20449;-77
2021/05/30 00:26:22;;;;;;;4.00;3.58;;;;;;;21.44;48.31;99410.47;4896458;29;20561;-76
2021/05/30 00:28:48;;;;;;;5.78;3.42;;;;;;;21.11;48.30;99363.06;4896389;29;20052;-77
2021/05/30 00:31:13;;;;;;;4.32;3.10;;;;;;;21.24;48.12;99388.75;4896750;29;20025;-76
2021/05/30 00:33:40;;;;;;;4.53;3.38;;;;;;;21.57;48.50;99452.28;4896584;29;20043;-76
2021/05/30 00:36:06;;;;;;;4.75;3.30;;;;;;;21.46;48.64;99432.50;4896532;29;20036;-77
2021/05/30 00:38:31;;;;;;;4.38;3.92;;;;;;;21.29;48.66;99410.28;4896486;29;20035;-77
2021/05/30 00:40:58;;;;;;;3.97;3.58;;;;;;;21.35;48.59;99425.41;4896377;29;20064;-76
2021/05/30 00:43:23;;;;;;;4.00;3.70;;;;;;;20.90;49.05;99372.75;4896398;29;20094;-76
2021/05/30 00:45:49;;;;;;;4.30;3.65;;;;;;;21.34;49.06;99445.28;4896053;29;20032;-77
2021/05/30 00:48:15;;;;;;;3.88;3.45;;;;;;;20.79;49.23;99356.75;4896507;29;20035;-76
2021/05/30 00:50:41;;;;;;;4.75;3.40;;;;;;;21.36;49.34;99456.56;4895181;29;20104;-76
2021/05/30 00:53:06;;;;;;;4.75;3.28;;;;;;;21.35;49.29;99454.94;4896341;29;20064;-77
2021/05/30 00:55:32;;;;;;;3.85;3.55;;;;;;;21.32;49.54;99450.06;4896296;29;20033;-76
2021/05/30 00:57:58;;;;;;;5.75;3.30;;;;;;;21.29;49.62;99453.25;4896041;29;20032;-76
2021/05/30 01:00:24;;;;;;;8.65;4.32;;;;;;;20.48;49.90;99326.03;4896038;29;20032;-77
2021/05/30 01:02:50;;;;;;;4.88;3.90;;;;;;;21.02;49.73;99426.31;4895994;29;20032;-76
2021/05/30 01:05:15;;;;;;;4.75;3.78;;;;;;;20.97;49.97;99412.03;4898123;29;20039;-76
2021/05/30 01:07:42;;;;;;;5.72;3.90;;;;;;;21.23;49.84;99448.91;4900133;29;20054;-77
2021/05/30 01:10:29;;;;;;;4.20;3.80;;;;;;;21.10;50.43;99438.50;4899765;29;20025;-76
2021/05/30 01:12:57;;;;;;;4.93;3.85;;;;;;;20.97;50.49;99423.56;4899943;29;20025;-77
2021/05/30 01:15:23;;;;;;;4.75;4.35;;;;;;;20.89;50.81;99406.03;4899679;29;20127;-76
2021/05/30 01:17:52;;;;;;;3.90;3.50;;;;;;;20.51;50.81;99355.84;4899649;29;20092;-77
2021/05/30 01:20:18;;;;;;;4.53;3.90;;;;;;;20.66;50.94;99376.69;4898136;29;20039;-77
2021/05/30 01:22:45;;;;;;;4.38;3.90;;;;;;;20.65;50.86;99372.41;4898304;29;20040;-76
2021/05/30 01:25:14;;;;;;;5.43;4.03;;;;;;;21.09;51.00;99443.06;4899659;29;20056;-76
2021/05/30 01:27:40;;;;;;;6.07;3.72;;;;;;;21.14;50.81;99450.34;4899440;29;20029;-76
2021/05/30 01:30:08;;;;;;;4.47;4.05;;;;;;;20.68;50.88;99371.09;4899236;29;20036;-76
2021/05/30 01:32:33;;;;;;;5.72;3.88;;;;;;;20.67;51.10;99367.59;4899045;29;20060;-76
2021/05/30 01:35:00;;;;;;;5.43;3.90;;;;;;;20.88;50.79;99401.72;4898196;29;20425;-75
2021/05/30 01:37:25;;;;;;;4.65;3.80;;;;;;;21.16;50.81;99426.75;4899824;29;20035;-76
2021/05/30 01:39:50;;;;;;;4.50;3.72;;;;;;;21.02;50.66;99407.53;4899490;29;20032;-76
2021/05/30 01:42:16;;;;;;;4.53;4.13;;;;;;;20.91;50.63;99398.53;4899024;29;20098;-76
2021/05/30 01:44:42;;;;;;;5.22;3.78;;;;;;;20.92;50.61;99402.03;4898945;29;20028;-76
2021/05/30 01:47:07;;;;;;;4.88;3.88;;;;;;;21.03;50.74;99422.56;4897736;29;20035;-76
2021/05/30 01:49:33;;;;;;;3.53;3.20;;;;;;;21.06;50.56;99426.63;4898719;29;20028;-76
2021/05/30 01:51:58;;;;;;;4.28;3.17;;;;;;;21.19;50.54;99439.69;4898684;29;20111;-76
2021/05/30 01:54:26;;;;;;;3.72;3.28;;;;;;;21.09;50.65;99426.94;4897364;29;20036;-76
2021/05/30 01:56:58;;;;;;;6.45;3.78;;;;;;;20.65;50.74;99368.91;4898548;29;20479;-76
2021/05/30 01:59:28;;;;;;;4.43;3.35;;;;;;;21.01;50.63;99419.31;4898478;29;20119;-76
2021/05/30 02:01:57;;;;;;;6.20;3.77;;;;;;;20.73;50.61;99382.69;4898847;29;20493;-77
2021/05/30 02:04:34;;;;;;;4.78;3.50;;;;;;;20.92;50.78;99413.56;4898460;29;20098;-76
2021/05/30 02:07:00;;;;;;;14.52;3.58;;;;;;;20.69;50.77;99381.56;4898162;29;20079;-76
2021/05/30 02:09:26;;;;;;;4.72;3.35;;;;;;;21.07;50.72;99445.19;4898541;29;20111;-76
2021/05/30 02:11:52;;;;;;;7.53;3.47;;;;;;;20.62;50.82;99368.34;4898515;29;20031;-76
2021/05/30 02:14:19;;;;;;;5.32;3.35;;;;;;;21.05;50.85;99439.25;4898393;29;20466;-76
2021/05/30 02:16:45;;;;;;;4.80;3.15;;;;;;;20.96;50.76;99431.88;4897571;29;20046;-76
2021/05/30 02:19:11;;;;;;;5.30;3.67;;;;;;;20.70;50.63;99410.03;4898644;29;20044;-76
2021/05/30 02:21:45;;;;;;;3.45;3.17;;;;;;;20.56;50.73;99400.72;4898205;29;20036;-76
2021/05/30 02:24:12;;;;;;;8.40;3.55;;;;;;;20.83;50.60;99460.69;4898443;29;20033;-76
2021/05/30 02:26:38;;;;;;;4.63;4.18;;;;;;;20.67;50.46;99441.91;4898167;29;20032;-76
2021/05/30 02:29:05;;;;;;;4.43;3.35;;;;;;;20.64;50.62;99443.22;4897987;29;20089;-76
2021/05/30 02:31:30;;;;;;;4.00;3.70;;;;;;;20.22;50.26;99373.09;4897027;29;20039;-76
2021/05/30 02:33:56;;;;;;;3.60;3.22;;;;;;;20.49;50.39;99440.28;4898091;29;20036;-76
2021/05/30 02:36:21;;;;;;;3.72;3.40;;;;;;;20.25;50.14;99410.13;4898142;29;20032;-76
2021/05/30 02:38:47;;;;;;;5.57;3.53;;;;;;;20.51;49.97;99443.53;4896656;29;20120;-76
2021/05/30 02:41:12;;;;;;;4.35;4.00;;;;;;;20.72;49.79;99468.81;4898084;29;20043;-76
2021/05/30 02:43:38;;;;;;;4.40;3.80;;;;;;;20.69;49.63;99459.38;4896741;29;20024;-76
2021/05/30 02:46:03;;;;;;;4.78;3.90;;;;;;;20.13;49.49;99386.09;4897756;29;20029;-76
2021/05/30 02:48:29;;;;;;;5.65;3.75;;;;;;;20.59;49.24;99448.50;4897720;29;20089;-76
2021/05/30 02:50:59;;;;;;;4.13;3.63;;;;;;;20.41;49.03;99427.31;4898027;29;20025;-76
2021/05/30 02:53:29;;;;;;;4.25;3.80;;;;;;;20.69;48.73;99464.75;4897740;29;20028;-76
2021/05/30 02:55:55;;;;;;;4.03;3.50;;;;;;;20.49;48.60;99432.25;4896350;29;20032;-76
2021/05/30 02:58:21;;;;;;;5.10;3.83;;;;;;;20.13;48.49;99379.91;4897913;29;20519;-76
2021/05/30 03:00:47;;;;;;;5.68;4.10;;;;;;;20.66;48.46;99467.91;4897460;29;20028;-76
2021/05/30 03:03:12;;;;;;;6.05;3.97;;;;;;;20.65;48.26;99462.78;4896143;29;20116;-76
2021/05/30 03:05:38;;;;;;;4.07;3.67;;;;;;;20.56;48.23;99455.16;4897725;29;20111;-76
2021/05/30 03:08:03;;;;;;;4.60;3.95;;;;;;;20.65;48.15;99471.66;4897723;29;20032;-76
2021/05/30 03:10:29;;;;;;;4.70;3.72;;;;;;;20.32;48.12;99416.13;4897342;29;20493;-76
2021/05/30 03:12:54;;;;;;;3.60;3.30;;;;;;;20.53;48.42;99468.25;4897307;29;20480;-76
2021/05/30 03:15:20;;;;;;;3.97;3.58;;;;;;;20.09;48.40;99397.53;4897139;29;20105;-76
2021/05/30 03:17:45;;;;;;;5.90;3.83;;;;;;;20.52;48.45;99472.00;4897157;29;20032;-76
2021/05/30 03:20:11;;;;;;;3.88;3.20;;;;;;;20.20;48.50;99424.28;4898148;29;20028;-76
2021/05/30 03:22:37;;;;;;;4.40;3.00;;;;;;;20.05;48.45;99394.50;4897047;29;20055;-76
2021/05/30 03:25:03;;;;;;;3.75;3.45;;;;;;;20.38;48.45;99455.38;4897179;29;20111;-76
2021/05/30 03:27:29;;;;;;;4.30;3.10;;;;;;;20.09;48.49;99411.75;4897200;29;20501;-76
2021/05/30 03:29:56;;;;;;;3.92;3.17;;;;;;;20.44;48.53;99473.22;4897038;29;20079;-76
2021/05/30 03:32:22;;;;;;;4.72;3.33;;;;;;;19.96;48.67;99393.28;4897125;29;20091;-76
2021/05/30 03:34:47;;;;;;;4.72;3.08;;;;;;;19.88;48.70;99378.41;4895885;29;20028;-76
2021/05/30 03:37:13;;;;;;;3.55;3.25;;;;;;;19.78;48.73;99364.84;4896950;29;20454;-76
2021/05/30 03:39:41;;;;;;;4.05;3.70;;;;;;;20.09;48.86;99427.03;4896923;29;20476;-76
2021/05/30 03:42:10;;;;;;;4.00;3.60;;;;;;;20.07;48.98;99432.63;4895457;29;20091;-77
2021/05/30 03:44:35;;;;;;;6.05;4.10;;;;;;;20.32;48.96;99475.13;4897001;29;20494;-76
2021/05/30 03:47:02;;;;;;;5.55;3.92;;;;;;;20.33;49.05;99479.44;4896703;29;20036;-76
2021/05/30 03:49:27;;;;;;;5.43;3.80;;;;;;;20.30;49.02;99485.28;4896828;29;20032;-76
2021/05/30 03:51:52;;;;;;;3.90;3.50;;;;;;;20.28;49.11;99479.34;4896827;29;20091;-77
2021/05/30 03:54:18;;;;;;;4.80;4.30;;;;;;;20.13;49.15;99465.69;4896868;29;20029;-76
2021/05/30 03:56:43;;;;;;;4.93;4.43;;;;;;;20.06;49.22;99454.28;4896652;29;20418;-76
2021/05/30 03:59:09;;;;;;;4.28;3.70;;;;;;;20.18;49.28;99477.31;4895357;29;20029;-76
2021/05/30 04:01:35;;;;;;;5.60;4.07;;;;;;;19.92;49.18;99429.66;4896801;29;20028;-76
2021/05/30 04:04:01;;;;;;;4.03;3.63;;;;;;;20.23;49.02;99488.13;4896650;29;20016;-76
2021/05/30 04:06:26;;;;;;;4.65;3.67;;;;;;;20.07;48.80;99439.84;4895233;29;20047;-76
2021/05/30 04:08:52;;;;;;;6.07;4.30;;;;;;;20.16;49.18;99455.31;4896589;29;20032;-77
2021/05/30 04:11:18;;;;;;;4.35;3.53;;;;;;;20.36;48.99;99480.81;4896522;29;20024;-77
2021/05/30 04:13:44;;;;;;;5.20;3.67;;;;;;;20.03;49.04;99422.59;4896456;29;20037;-76
2021/05/30 04:16:09;;;;;;;5.32;3.53;;;;;;;19.99;49.06;99416.91;4896586;29;20097;-77
2021/05/30 04:18:35;;;;;;;5.25;4.07;;;;;;;20.11;49.07;99436.44;4896563;29;20059;-76
2021/05/30 04:21:01;;;;;;;5.45;4.35;;;;;;;19.93;49.14;99407.16;4896435;29;20044;-76
2021/05/30 04:23:26;;;;;;;6.15;4.55;;;;;;;20.05;49.10;99423.19;4896757;29;20032;-76
2021/05/30 04:25:52;;;;;;;4.25;3.85;;;;;;;20.19;49.11;99449.44;4895188;29;20054;-77
2021/05/30 04:28:19;;;;;;;4.80;4.35;;;;;;;20.27;49.04;99467.00;4896712;29;20028;-76
2021/05/30 04:30:44;;;;;;;4.30;3.67;;;;;;;20.06;49.21;99444.38;4896122;29;20032;-77
2021/05/30 04:33:10;;;;;;;5.35;4.00;;;;;;;19.86;49.07;99406.50;4896340;29;20095;-76
2021/05/30 04:35:35;;;;;;;4.85;4.35;;;;;;;19.69;49.38;99417.19;4896607;29;20033;-76
2021/05/30 04:38:00;;;;;;;5.40;4.25;;;;;;;19.83;49.79;99458.72;4896548;29;20111;-76
2021/05/30 04:40:26;;;;;;;5.05;3.97;;;;;;;19.17;49.65;99360.19;4899227;29;20039;-76
2021/05/30 04:42:52;;;;;;;5.03;3.95;;;;;;;19.61;49.41;99426.44;4900463;29;20040;-76
2021/05/30 04:45:19;;;;;;;4.18;3.78;;;;;;;19.67;49.42;99408.59;4898879;29;20032;-76
2021/05/30 04:47:44;;;;;;;4.07;3.78;;;;;;;19.86;49.17;99426.06;4898968;29;20028;-76
2021/05/30 04:50:11;;;;;;;4.57;3.55;;;;;;;20.27;49.22;99489.25;4900126;29;20482;-76
2021/05/30 04:52:37;;;;;;;5.63;3.75;;;;;;;20.13;49.06;99463.81;4900146;29;20091;-76
2021/05/30 04:55:02;;;;;;;4.20;3.80;;;;;;;20.33;49.08;99492.84;4900106;29;20032;-76
2021/05/30 04:57:28;;;;;;;4.22;3.83;;;;;;;20.08;48.91;99447.66;4899834;29;20428;-77
2021/05/30 04:59:53;;;;;;;4.07;3.45;;;;;;;20.23;48.68;99461.31;4900092;29;20040;-77
2021/05/30 05:02:19;;;;;;;5.57;3.40;;;;;;;20.12;48.69;99434.59;4899878;29;20028;-77
2021/05/30 05:04:44;;;;;;;5.13;4.57;;;;;;;20.61;48.72;99497.34;4899923;29;20032;-76
2021/05/30 05:07:10;;;;;;;4.45;3.38;;;;;;;20.46;48.47;99470.28;4900670;29;20111;-77
2021/05/30 05:09:35;;;;;;;4.53;3.60;;;;;;;20.78;48.31;99497.34;4899529;29;20055;-76
2021/05/30 05:12:01;;;;;;;4.22;3.83;;;;;;;20.17;48.36;99418.59;4900214;29;20028;-77
2021/05/30 05:14:26;;;;;;;4.25;3.85;;;;;;;20.27;48.47;99434.84;4899847;29;20033;-77
2021/05/30 05:16:52;;;;;;;6.00;3.58;;;;;;;20.62;48.57;99498.97;4898333;29;20462;-76
2021/05/30 05:19:17;;;;;;;3.50;3.20;;;;;;;20.81;48.36;99521.03;4899670;29;20084;-77
2021/05/30 05:21:43;;;;;;;3.88;3.47;;;;;;;20.57;48.41;99461.34;4899728;29;20067;-76
2021/05/30 05:24:09;;;;;;;4.88;3.55;;;;;;;20.73;48.28;99465.88;4899761;29;20043;-77
2021/05/30 05:26:34;;;;;;;3.05;2.85;;;;;;;21.11;47.96;99512.59;4899379;29;20036;-77
2021/05/30 05:28:59;;;;;;;2.95;2.70;;;;;;;21.13;47.83;99502.44;4899116;29;20462;-77
2021/05/30 05:31:25;;;;;;;4.43;2.75;;;;;;;20.86;47.24;99444.09;4899276;29;20029;-77
2021/05/30 05:33:50;;;;;;;2.97;2.63;;;;;;;21.45;47.02;99514.16;4899403;29;20024;-77
2021/05/30 05:36:17;;;;;;;2.97;2.60;;;;;;;21.32;46.68;99500.28;4899422;29;20037;-76
2021/05/30 05:38:42;;;;;;;2.85;2.53;;;;;;;21.39;46.43;99492.88;4899163;29;20036;-76
2021/05/30 05:41:08;;;;;;;3.67;2.58;;;;;;;21.46;46.36;99505.03;4897822;29;20040;-76
2021/05/30 05:43:33;;;;;;;3.17;2.53;;;;;;;21.45;46.21;99499.94;4899204;29;20029;-76
2021/05/30 05:45:59;;;;;;;2.67;2.40;;;;;;;21.39;45.72;99472.19;4899326;29;20116;-77
2021/05/30 05:48:24;;;;;;;2.83;2.38;;;;;;;21.23;45.24;99440.84;4897639;29;20478;-77
2021/05/30 05:50:49;;;;;;;3.33;2.72;;;;;;;21.33;45.08;99454.38;4898218;29;20028;-77
2021/05/30 05:53:16;;;;;;;2.83;2.40;;;;;;;21.42;44.96;99446.69;4898791;29;20411;-76
2021/05/30 05:55:42;;;;;;;4.00;3.05;;;;;;;21.86;44.76;99502.03;4899152;29;20387;-76
2021/05/30 05:58:08;;;;;;;3.85;2.58;;;;;;;21.41;44.36;99419.03;4898828;29;20513;-77
2021/05/30 06:00:34;;;;;;;5.28;2.50;;;;;;;21.96;44.08;99501.34;4898953;29;20071;-77
2021/05/30 06:02:59;;;;;;;3.90;2.72;;;;;;;21.77;43.52;99457.06;4898895;29;20103;-77
2021/05/30 06:05:25;;;;;;;2.60;2.40;;;;;;;21.49;43.45;99423.94;4898550;29;20119;-77
2021/05/30 06:07:54;;;;;;;2.50;2.20;;;;;;;21.58;42.24;99429.72;4897370;29;20040;-77
2021/05/30 06:10:23;;;;;;;3.03;2.53;;;;;;;22.04;42.07;99506.28;4898826;29;20383;-76
2021/05/30 06:12:56;;;;;;;2.67;2.42;;;;;;;21.81;42.33;99452.78;4898295;29;20063;-76
2021/05/30 06:15:24;;;;;;;4.78;2.55;;;;;;;22.22;41.73;99504.31;4898747;29;20037;-76
2021/05/30 06:18:12;;;;;;;4.38;3.00;;;;;;;22.03;41.25;99456.25;4898513;29;20036;-77
2021/05/30 06:20:36;;;;;;;3.55;2.45;;;;;;;22.33;41.00;99500.66;4898395;29;20123;-76
2021/05/30 06:23:02;;;;;;;2.97;2.60;;;;;;;22.29;40.56;99481.50;4898572;29;20029;-76
2021/05/30 06:25:27;;;;;;;2.70;2.15;;;;;;;21.96;40.33;99422.56;4898604;29;20028;-76
2021/05/30 06:27:55;;;;;;;3.03;2.47;;;;;;;22.49;40.41;99511.28;4898533;29;20116;-76
2021/05/30 06:30:37;;;;;;;3.00;2.63;;;;;;;22.31;39.91;99449.00;4898249;29;20116;-76
2021/05/30 06:33:05;;;;;;;2.58;2.38;;;;;;;22.19;39.93;99438.38;4897984;29;20528;-76
2021/05/30 06:35:31;;;;;;;4.45;2.80;;;;;;;22.08;39.58;99425.94;4898429;29;20028;-76
2021/05/30 06:37:57;;;;;;;3.53;2.42;;;;;;;22.25;39.55;99442.75;4898848;29;20032;-76
2021/05/30 06:40:22;;;;;;;3.83;2.38;;;;;;;22.62;39.17;99491.22;4898337;29;20029;-76
2021/05/30 06:42:49;;;;;;;6.03;2.60;;;;;;;22.77;39.08;99499.41;4898166;29;20064;-76
2021/05/30 06:45:15;;;;;;;2.97;2.35;;;;;;;22.95;38.99;99497.38;4897945;29;20024;-76
2021/05/30 06:47:40;;;;;;;4.22;2.60;;;;;;;23.05;38.30;99494.78;4898019;29;20033;-76
2021/05/30 06:50:06;;;;;;;3.83;2.50;;;;;;;22.89;38.20;99477.69;4898068;29;20111;-77
2021/05/30 06:52:31;;;;;;;3.20;2.53;;;;;;;22.81;38.07;99473.63;4896693;29;20032;-76
2021/05/30 06:54:57;;;;;;;2.50;2.30;;;;;;;22.70;38.39;99463.00;4898024;29;20461;-76
2021/05/30 06:57:23;;;;;;;3.15;2.85;;;;;;;23.07;38.30;99493.44;4897532;29;20040;-76
2021/05/30 06:59:49;;;;;;;3.00;2.28;;;;;;;22.87;38.48;99449.41;4897425;29;20037;-77
2021/05/30 07:02:15;;;;;;;2.70;2.10;;;;;;;23.23;38.00;99494.34;4897477;29;20025;-77
2021/05/30 07:04:41;;;;;;;2.95;2.15;;;;;;;22.92;37.39;99430.59;4896236;29;20025;-77
2021/05/30 07:07:06;;;;;;;1.95;1.85;;;;;;;23.34;37.01;99493.31;4897643;29;20039;-76
2021/05/30 07:09:31;;;;;;;2.53;2.13;;;;;;;22.96;37.07;99437.06;4897566;29;20080;-76
2021/05/30 07:11:57;;;;;;;3.65;2.25;;;;;;;23.24;36.73;99465.53;4897505;29;20024;-77
2021/05/30 07:14:22;;;;;;;3.72;2.20;;;;;;;23.40;36.71;99488.75;4897458;29;20025;-76
2021/05/30 07:16:48;;;;;;;2.10;1.90;;;;;;;23.19;36.43;99460.91;4897411;29;20033;-76
2021/05/30 07:19:13;;;;;;;2.13;2.03;;;;;;;23.11;35.92;99443.38;4896969;29;20028;-76
2021/05/30 07:21:39;;;;;;;2.10;1.90;;;;;;;22.82;36.26;99396.34;4897095;29;20028;-77
2021/05/30 07:24:05;;;;;;;2.53;2.17;;;;;;;23.46;36.29;99488.50;4897129;29;20503;-76
2021/05/30 07:26:31;;;;;;;2.40;1.83;;;;;;;23.22;35.82;99428.06;4897108;29;20039;-76
2021/05/30 07:28:56;;;;;;;2.50;2.15;;;;;;;23.36;35.47;99433.78;4897236;29;20028;-77
2021/05/30 07:31:22;;;;;;;2.78;1.90;;;;;;;23.34;35.47;99423.25;4897284;29;20116;-77
2021/05/30 07:33:47;;;;;;;2.20;2.00;;;;;;;23.74;35.28;99473.00;4897448;29;20028;-76
2021/05/30 07:36:13;;;;;;;2.55;1.80;;;;;;;23.70;35.22;99466.53;4897068;29;20024;-76
2021/05/30 07:38:39;;;;;;;3.13;1.83;;;;;;;23.57;35.41;99448.16;4896908;29;20033;-77
2021/05/30 07:41:20;;;;;;;2.00;1.90;;;;;;;23.89;35.01;99478.47;5069088;28;20382;-75
2021/05/30 07:43:45;;;;;;;4.22;2.25;;;;;;;23.57;35.40;99430.09;5069390;28;20029;-75
2021/05/30 07:46:10;;;;;;;3.95;2.00;;;;;;;23.45;35.29;99399.84;5068946;28;20021;-75
2021/05/30 07:48:37;;;;;;;2.00;1.90;;;;;;;23.68;35.04;99437.13;5068916;28;20029;-77
2021/05/30 07:51:03;;;;;;;2.83;1.70;;;;;;;24.01;35.15;99476.31;5069051;28;20021;-75
2021/05/30 07:53:28;;;;;;;4.00;2.05;;;;;;;24.00;35.13;99460.41;5067365;28;20075;-75
2021/05/30 07:55:54;;;;;;;3.05;1.98;;;;;;;23.89;34.74;99438.00;5067510;28;20025;-75
2021/05/30 07:58:19;;;;;;;2.05;1.85;;;;;;;23.71;34.99;99400.75;5068983;28;20036;-75
2021/05/30 08:00:45;;;;;;;2.72;1.85;;;;;;;24.19;35.05;99460.69;5068529;28;20052;-76
2021/05/30 08:03:10;;;;;;;2.97;2.05;;;;;;;24.12;34.92;99447.47;5068407;28;20091;-77
2021/05/30 08:05:36;;;;;;;4.18;2.45;;;;;;;23.94;35.00;99418.31;5067477;28;20032;-77
2021/05/30 08:08:01;;;;;;;2.65;2.00;;;;;;;24.27;34.95;99449.38;5068513;28;20452;-77
2021/05/30 08:10:28;;;;;;;5.40;4.38;;;;;;;24.08;35.13;99412.13;5068644;28;20477;-76
2021/05/30 08:12:54;;;;;;;4.60;4.00;;;;;;;24.52;35.52;99445.88;5068609;28;20025;-77
2021/05/30 08:15:20;;;;;;;4.15;3.22;;;;;;;24.73;34.88;99454.78;5068528;28;20530;-76
2021/05/30 08:17:46;;;;;;;4.00;2.80;;;;;;;24.84;34.55;99451.78;5067033;28;20029;-76
2021/05/30 08:20:14;;;;;;;3.33;2.63;;;;;;;24.91;34.32;99443.38;5068760;28;20103;-76
2021/05/30 08:22:40;;;;;;;3.45;3.15;;;;;;;24.51;34.73;99388.38;5067124;28;20544;-77
2021/05/30 08:25:06;;;;;;;4.57;3.22;;;;;;;24.94;34.80;99453.63;5067049;28;20451;-76
2021/05/30 08:27:32;;;;;;;4.43;3.60;;;;;;;24.81;34.55;99425.31;5068367;28;20032;-76
2021/05/30 08:29:57;;;;;;;4.90;4.50;;;;;;;25.14;34.65;99453.59;5066683;28;20480;-76
2021/05/30 08:32:23;;;;;;;4.15;2.88;;;;;;;25.18;34.57;99453.88;5066670;28;20036;-76
2021/05/30 08:34:48;;;;;;;3.45;2.20;;;;;;;25.19;33.27;99434.66;5068164;28;20017;-76
2021/05/30 08:37:14;;;;;;;2.95;2.20;;;;;;;24.88;33.13;99406.94;5071866;28;20106;-76
2021/05/30 08:39:40;;;;;;;3.47;2.22;;;;;;;25.27;32.95;99463.84;5067496;28;20049;-77
2021/05/30 08:42:06;;;;;;;2.35;2.20;;;;;;;25.24;32.55;99463.56;5067130;28;20116;-77
2021/05/30 08:44:32;;;;;;;2.80;2.60;;;;;;;24.86;32.64;99413.69;5068066;28;20028;-77
2021/05/30 08:46:57;;;;;;;2.55;2.05;;;;;;;24.92;32.99;99409.88;5067632;28;20036;-76
2021/05/30 08:49:23;;;;;;;3.92;3.63;;;;;;;25.25;32.91;99452.47;5067474;28;20013;-77
2021/05/30 08:51:48;;;;;;;4.80;3.78;;;;;;;25.35;32.66;99454.38;5058964;28;20032;-77
2021/05/30 08:54:17;;;;;;;3.58;2.20;;;;;;;25.55;32.66;99440.75;5054361;28;20071;-77
2021/05/30 08:56:43;;;;;;;3.85;2.45;;;;;;;25.48;32.19;99404.28;5054327;28;20032;-76
2021/05/30 08:59:33;;;;;;;3.20;2.30;;;;;;;25.85;32.13;99444.38;5054346;28;20032;-77
2021/05/30 09:02:10;;;;;;;4.97;2.40;;;;;;;25.97;32.11;99451.06;5052856;28;20025;-77
2021/05/30 09:04:41;;;;;;;2.30;1.98;;;;;;;25.78;32.00;99393.31;5054010;28;20406;-77
2021/05/30 09:07:08;;;;;;;2.40;2.13;;;;;;;26.25;31.72;99432.47;5054023;28;20147;-77
2021/05/30 09:09:42;;;;;;;2.20;2.00;;;;;;;26.32;30.99;99432.97;5053748;28;20029;-77
2021/05/30 09:12:20;;;;;;;3.13;2.10;;;;;;;26.23;30.75;99413.00;5054107;28;20420;-76
2021/05/30 09:14:48;;;;;;;2.30;2.10;;;;;;;26.19;31.07;99434.41;5052545;28;20086;-76
2021/05/30 09:17:14;;;;;;;5.25;2.20;;;;;;;26.00;31.31;99392.88;5053792;28;20025;-76
2021/05/30 09:19:45;;;;;;;3.05;2.20;;;;;;;26.47;30.96;99430.13;5052245;28;20081;-76
2021/05/30 09:22:27;;;;;;;2.40;2.20;;;;;;;26.43;30.52;99420.97;5053849;28;20025;-77
2021/05/30 09:25:09;;;;;;;4.18;3.67;;;;;;;26.38;30.86;99418.31;5052620;28;20474;-77
2021/05/30 09:27:41;;;;;;;2.38;2.08;;;;;;;26.22;30.96;99351.84;5053727;28;20029;-76
2021/05/30 09:30:18;;;;;;;2.20;2.03;;;;;;;26.73;30.45;99403.59;5053479;28;20074;-76
2021/05/30 09:32:56;;;;;;;3.45;2.25;;;;;;;27.02;30.19;99414.44;5053591;28;20082;-76
2021/05/30 09:35:27;;;;;;;4.55;2.00;;;;;;;27.05;30.74;99408.44;5053624;28;20025;-76
2021/05/30 09:38:00;;;;;;;2.58;1.85;;;;;;;26.89;30.95;99401.56;5053816;28;20028;-76
2021/05/30 09:40:39;;;;;;;3.03;2.28;;;;;;;26.76;31.67;99407.66;5052094;28;20115;-76
2021/05/30 09:43:16;;;;;;;5.75;2.30;;;;;;;26.79;31.63;99383.53;5053649;28;20029;-76
2021/05/30 09:45:56;;;;;;;2.50;2.30;;;;;;;26.91;31.24;99356.03;5053742;28;20037;-76
2021/05/30 09:48:22;;;;;;;4.65;1.95;;;;;;;27.11;31.32;99380.19;5053400;28;20028;-76
2021/05/30 09:51:03;;;;;;;3.38;2.15;;;;;;;27.12;31.22;99324.88;5053365;28;20021;-76
2021/05/30 09:53:31;;;;;;;2.30;2.10;;;;;;;27.91;30.82;99402.97;5053609;28;20051;-74
2021/05/30 09:55:56;;;;;;;3.00;2.10;;;;;;;27.88;30.69;99411.69;5070937;28;20036;-76
2021/05/30 09:58:24;;;;;;;5.82;2.30;;;;;;;27.66;31.12;99390.59;5073043;28;20454;-75
2021/05/30 10:00:52;;;;;;;2.50;2.30;;;;;;;27.53;31.26;99401.06;5073015;28;20500;-76
2021/05/30 10:03:20;;;;;;;3.70;2.35;;;;;;;27.03;31.61;99370.00;5072268;28;20024;-75
2021/05/30 10:05:46;;;;;;;3.80;2.13;;;;;;;26.66;31.92;99364.41;5071490;28;20115;-77
2021/05/30 10:08:13;;;;;;;4.25;3.08;;;;;;;26.50;32.19;99378.13;5072878;28;20178;-76
2021/05/30 10:10:39;;;;;;;2.72;2.38;;;;;;;26.11;32.44;99342.22;5072840;28;20013;-75
2021/05/30 10:13:04;;;;;;;4.53;2.55;;;;;;;26.12;32.95;99370.88;5072897;28;20507;-75
2021/05/30 10:15:30;;;;;;;4.85;2.20;;;;;;;26.20;33.04;99389.22;5073116;28;20027;-75
2021/05/30 10:18:00;;;;;;;2.55;2.10;;;;;;;25.83;33.14;99349.19;5072977;28;20024;-74
2021/05/30 10:20:27;;;;;;;4.03;2.45;;;;;;;26.17;33.01;99404.13;5073177;28;20079;-74
2021/05/30 10:22:55;;;;;;;4.50;2.03;;;;;;;26.16;33.43;99423.34;5077052;28;20104;-76
2021/05/30 10:25:38;;;;;;;2.65;2.35;;;;;;;25.94;33.22;99380.47;5078463;28;20032;-76
2021/05/30 10:28:21;;;;;;;6.07;2.60;;;;;;;26.06;33.41;99404.50;5072908;28;20024;-76
2021/05/30 10:30:49;;;;;;;4.45;2.53;;;;;;;25.92;33.34;99413.22;5072177;28;20091;-74
2021/05/30 10:33:23;;;;;;;2.60;2.40;;;;;;;25.83;34.13;99384.34;5072152;28;20024;-75
2021/05/30 10:35:52;;;;;;;4.45;2.85;;;;;;;25.66;33.50;99355.00;5072318;28;20020;-74
2021/05/30 10:38:39;;;;;;;5.13;2.25;;;;;;;25.94;33.70;99411.03;5072416;28;20024;-75
2021/05/30 10:41:14;;;;;;;3.80;2.35;;;;;;;25.93;33.57;99411.31;5072123;28;20508;-75
2021/05/30 10:43:40;;;;;;;3.42;2.45;;;;;;;25.90;33.42;99418.09;5072176;28;20056;-76
2021/05/30 10:46:07;;;;;;;3.42;2.30;;;;;;;25.83;33.19;99409.50;5072007;28;20048;-76
2021/05/30 10:48:33;;;;;;;3.20;2.38;;;;;;;25.91;33.64;99408.09;5072195;28;20024;-76
2021/05/30 10:53:32;;;;;;;3.17;2.20;;;;;;;25.84;33.29;99418.44;5072080;28;20027;-76
2021/05/30 10:56:23;;;;;;;4.68;2.75;;;;;;;25.74;33.15;99418.50;5072090;28;20492;-76
2021/05/30 10:59:03;;;;;;;4.50;2.60;;;;;;;25.60;34.04;99418.28;5072016;28;20025;-77
2021/05/30 11:01:39;;;;;;;5.13;2.60;;;;;;;25.50;33.99;99421.03;5072027;28;20086;-74
2021/05/30 11:04:23;;;;;;;2.97;2.50;;;;;;;25.43;34.23;99418.66;5070840;28;20036;-77
2021/05/30 11:06:56;;;;;;;3.03;2.60;;;;;;;25.18;33.68;99387.13;5071775;28;20048;-76
2021/05/30 11:09:23;;;;;;;3.50;2.40;;;;;;;25.27;33.87;99415.22;5072118;28;20059;-76
2021/05/30 11:12:27;;;;;;;2.83;2.33;;;;;;;25.18;34.42;99421.44;5071616;28;20024;-75
2021/05/30 11:15:11;;;;;;;2.78;2.50;;;;;;;25.18;34.88;99424.94;5069197;28;20028;-74
2021/05/30 11:17:36;;;;;;;4.75;2.72;;;;;;;24.82;34.91;99364.81;5069280;28;20464;-74
2021/05/30 11:20:04;;;;;;;4.43;2.55;;;;;;;24.86;34.68;99374.00;5061644;28;20044;-75
2021/05/30 11:22:45;;;;;;;3.38;2.42;;;;;;;24.78;34.30;99371.88;5070570;28;20025;-76
2021/05/30 11:25:11;;;;;;;3.00;2.78;;;;;;;25.01;34.76;99405.56;5070286;28;20086;-77
2021/05/30 11:27:54;;;;;;;8.88;3.00;;;;;;;25.00;34.43;99409.34;5071021;28;20024;-76
2021/05/30 11:30:49;;;;;;;2.90;2.60;;;;;;;24.96;34.80;99414.47;5070113;28;20031;-75
2021/05/30 11:33:25;;;;;;;3.55;2.65;;;;;;;24.82;34.97;99385.63;5071418;28;20048;-77
2021/05/30 11:36:03;;;;;;;3.70;2.65;;;;;;;24.93;34.92;99400.72;5070568;28;20036;-76
2021/05/30 11:38:37;;;;;;;3.05;2.50;;;;;;;24.98;34.81;99409.63;5070942;28;20102;-76
2021/05/30 11:41:21;;;;;;;3.22;2.90;;;;;;;24.79;35.00;99383.47;5071481;28;20083;-76